Time;durP1;ratioP1;P1;durP2;ratioP2;P2;SDS_P1;SDS_P2;PMS_P1;PMS_P2;Temp;Humidity;BMP_temperature;BMP_pressure;BME280_temperature;BME280_humidity;BME280_pressure;Samples;Min_cycle;Max_cycle;Signal;HPM_P1;HPM_P2
2021/06/29 00:02:18;;;;;;;6.00;5.40;;;23.40;89.20;;;;;;5036554;28;20349;-81
2021/06/29 00:04:43;;;;;;;6.38;5.68;;;23.40;89.20;;;;;;5014350;28;20084;-81
2021/06/29 00:07:09;;;;;;;5.60;4.95;;;23.40;89.50;;;;;;5016615;28;20105;-80
2021/06/29 00:09:34;;;;;;;6.10;5.50;;;23.40;89.20;;;;;;5019274;28;20127;-81
2021/06/29 00:12:00;;;;;;;6.07;5.47;;;23.40;89.20;;;;;;5015611;28;20046;-81
2021/06/29 00:14:26;;;;;;;6.15;5.45;;;23.40;89.10;;;;;;5015179;28;20030;-81
2021/06/29 00:16:52;;;;;;;7.40;5.95;;;23.40;89.20;;;;;;5014416;28;20045;-81
2021/06/29 00:19:19;;;;;;;6.40;5.80;;;23.40;89.40;;;;;;5014015;28;20041;-81
2021/06/29 00:21:46;;;;;;;8.55;5.82;;;23.40;89.40;;;;;;5047866;28;20103;-81
2021/06/29 00:24:11;;;;;;;6.78;5.85;;;23.40;89.50;;;;;;5001370;28;20113;-82
2021/06/29 00:26:37;;;;;;;6.45;5.78;;;23.30;89.60;;;;;;5048065;28;20156;-81
2021/06/29 00:29:02;;;;;;;12.15;5.97;;;23.30;89.70;;;;;;5004442;28;20045;-81
2021/06/29 00:31:28;;;;;;;10.35;6.25;;;23.30;90.00;;;;;;5013537;28;20380;-81
2021/06/29 00:33:53;;;;;;;7.78;6.50;;;23.30;90.00;;;;;;5002824;28;20054;-81
2021/06/29 00:36:19;;;;;;;6.93;6.22;;;23.30;90.00;;;;;;5044176;28;20373;-82
2021/06/29 00:38:44;;;;;;;6.32;5.65;;;23.20;90.10;;;;;;5047575;28;20121;-81
2021/06/29 00:41:10;;;;;;;6.25;5.60;;;23.20;90.20;;;;;;5013329;28;20074;-81
2021/06/29 00:43:36;;;;;;;7.10;6.40;;;23.20;90.20;;;;;;5023971;28;20420;-82
2021/06/29 00:46:02;;;;;;;7.13;6.30;;;23.10;90.10;;;;;;5015523;28;20049;-82
2021/06/29 00:48:27;;;;;;;6.15;5.53;;;23.20;90.20;;;;;;5009654;28;20056;-82
2021/06/29 00:50:53;;;;;;;6.75;5.97;;;23.10;90.20;;;;;;5008827;28;20076;-82
2021/06/29 00:53:18;;;;;;;9.07;6.55;;;23.10;90.20;;;;;;5013927;28;20061;-81
2021/06/29 00:55:44;;;;;;;8.75;6.43;;;23.10;90.30;;;;;;5010246;28;20038;-81
2021/06/29 00:58:11;;;;;;;7.13;6.50;;;23.00;90.40;;;;;;5012416;28;20042;-81
2021/06/29 01:00:39;;;;;;;7.93;6.43;;;23.00;90.40;;;;;;5011976;28;20081;-82
2021/06/29 01:03:05;;;;;;;7.30;5.88;;;23.00;90.50;;;;;;5011022;28;20702;-81
2021/06/29 01:05:31;;;;;;;6.95;6.25;;;23.00;90.60;;;;;;5015227;28;20085;-81
2021/06/29 01:07:57;;;;;;;7.20;6.18;;;23.00;90.80;;;;;;5014055;28;20426;-82
2021/06/29 01:10:22;;;;;;;7.85;6.30;;;23.00;91.00;;;;;;5006780;28;20046;-82
2021/06/29 01:12:48;;;;;;;7.03;6.30;;;23.00;91.10;;;;;;5001741;28;20448;-82
2021/06/29 01:15:13;;;;;;;7.32;6.15;;;23.00;91.10;;;;;;5013034;28;20390;-82
2021/06/29 01:17:39;;;;;;;6.97;6.05;;;23.00;91.10;;;;;;5005922;28;20128;-83
2021/06/29 01:20:13;;;;;;;6.53;5.82;;;23.00;91.20;;;;;;5030547;28;20114;-83
2021/06/29 01:22:39;;;;;;;8.52;6.90;;;23.10;91.30;;;;;;5002422;28;20053;-83
2021/06/29 01:25:05;;;;;;;7.53;6.45;;;23.10;91.40;;;;;;5036588;28;20479;-83
2021/06/29 01:32:41;;;;;;;6.63;5.72;;;23.20;91.00;;;;;;5007725;28;20330;-82
2021/06/29 01:35:08;;;;;;;8.48;5.40;;;23.10;90.90;;;;;;5030527;28;20037;-82
2021/06/29 01:37:36;;;;;;;9.48;5.38;;;23.20;90.80;;;;;;5000749;28;20038;-84
2021/06/29 01:42:34;;;;;;;4.85;4.32;;;23.20;90.60;;;;;;5004630;28;20133;-82
2021/06/29 01:45:00;;;;;;;9.05;5.35;;;23.10;90.70;;;;;;5007466;28;20120;-83
2021/06/29 01:47:38;;;;;;;7.95;4.78;;;23.10;90.70;;;;;;5022729;28;20034;-83
2021/06/29 01:50:15;;;;;;;6.43;4.40;;;23.10;90.80;;;;;;5006850;28;20057;-83
2021/06/29 01:52:41;;;;;;;5.15;3.88;;;23.10;90.70;;;;;;5020623;28;20033;-84
2021/06/29 01:55:08;;;;;;;4.65;4.20;;;23.00;90.60;;;;;;5019411;28;20125;-84
2021/06/29 01:57:35;;;;;;;7.22;4.68;;;23.00;90.70;;;;;;5006992;28;20117;-84
2021/06/29 02:00:01;;;;;;;7.63;4.72;;;23.00;90.60;;;;;;5003362;28;20452;-83
2021/06/29 02:02:27;;;;;;;7.45;4.03;;;22.80;90.70;;;;;;5003688;28;20042;-83
2021/06/29 02:04:52;;;;;;;7.30;3.90;;;22.80;90.70;;;;;;5044700;28;20034;-83
2021/06/29 02:07:18;;;;;;;10.70;3.42;;;22.80;90.80;;;;;;5010690;28;20489;-84
2021/06/29 02:09:43;;;;;;;4.28;3.33;;;22.70;91.00;;;;;;5006316;28;20076;-83
2021/06/29 02:12:09;;;;;;;7.32;3.85;;;22.60;91.00;;;;;;5011858;28;20034;-83
2021/06/29 02:14:34;;;;;;;3.45;3.08;;;22.60;90.90;;;;;;5044229;28;20096;-82
2021/06/29 02:17:00;;;;;;;3.47;3.17;;;22.50;91.00;;;;;;5014189;28;20045;-83
2021/06/29 02:19:25;;;;;;;5.00;2.92;;;22.50;91.00;;;;;;5016948;28;20502;-83
2021/06/29 02:21:51;;;;;;;10.52;2.58;;;22.50;90.90;;;;;;5018627;28;20038;-83
2021/06/29 02:24:16;;;;;;;3.60;2.42;;;22.50;91.00;;;;;;5014064;28;20048;-84
2021/06/29 02:26:42;;;;;;;3.08;1.92;;;22.50;90.50;;;;;;5004540;28;20030;-82
2021/06/29 02:29:08;;;;;;;2.65;2.05;;;22.50;90.10;;;;;;5028103;28;20053;-83
2021/06/29 02:31:33;;;;;;;2.60;1.67;;;22.40;89.80;;;;;;5041709;28;20046;-83
2021/06/29 02:33:58;;;;;;;2.70;1.70;;;22.30;89.80;;;;;;5000216;28;20116;-82
2021/06/29 02:36:24;;;;;;;3.15;1.48;;;22.40;89.70;;;;;;5001916;28;20167;-83
2021/06/29 02:38:50;;;;;;;4.10;1.23;;;22.30;89.10;;;;;;5032738;28;20457;-83
2021/06/29 02:41:15;;;;;;;2.20;1.58;;;22.30;89.20;;;;;;5004438;28;20046;-82
2021/06/29 02:43:42;;;;;;;0.95;0.85;;;22.30;88.90;;;;;;5038649;28;20122;-83
2021/06/29 02:46:08;;;;;;;1.23;1.10;;;22.30;88.50;;;;;;5016180;28;20042;-84
2021/06/29 02:48:33;;;;;;;3.88;1.00;;;22.30;88.70;;;;;;5027077;28;20038;-83
2021/06/29 02:50:59;;;;;;;8.75;1.00;;;22.30;88.60;;;;;;5047150;28;20046;-85
2021/06/29 02:53:24;;;;;;;0.80;0.60;;;22.30;88.30;;;;;;5013139;28;20048;-83
2021/06/29 02:55:50;;;;;;;1.42;0.70;;;22.20;87.70;;;;;;5010423;28;20050;-83
2021/06/29 02:58:15;;;;;;;2.97;1.10;;;22.20;87.40;;;;;;5019096;28;20052;-83
2021/06/29 03:00:41;;;;;;;1.33;0.60;;;22.20;88.10;;;;;;5008821;28;20034;-83
2021/06/29 03:03:06;;;;;;;4.70;0.47;;;22.20;88.00;;;;;;5039445;28;20057;-82
2021/06/29 03:05:32;;;;;;;3.00;0.50;;;22.10;87.80;;;;;;5021786;28;20057;-83
2021/06/29 03:07:57;;;;;;;0.63;0.47;;;22.00;88.20;;;;;;5009424;28;20069;-82
2021/06/29 03:10:23;;;;;;;0.98;0.63;;;22.00;88.30;;;;;;5041274;28;20045;-82
2021/06/29 03:12:48;;;;;;;1.25;0.75;;;22.00;88.60;;;;;;5040671;28;20416;-83
2021/06/29 03:15:14;;;;;;;0.90;0.60;;;22.00;88.30;;;;;;5036427;28;20100;-82
2021/06/29 03:17:39;;;;;;;1.02;0.50;;;22.10;88.80;;;;;;5004451;28;20045;-82
2021/06/29 03:20:09;;;;;;;1.80;0.60;;;22.10;88.50;;;;;;5042909;28;20109;-83
2021/06/29 03:22:34;;;;;;;0.57;0.40;;;22.10;88.30;;;;;;5043456;28;20042;-83
2021/06/29 03:25:00;;;;;;;1.33;0.50;;;22.00;88.30;;;;;;5007666;28;20099;-83
2021/06/29 03:27:25;;;;;;;0.85;0.55;;;22.00;88.50;;;;;;5012271;28;20393;-83
2021/06/29 03:29:51;;;;;;;0.65;0.43;;;22.10;88.40;;;;;;5009883;28;20056;-82
2021/06/29 03:32:16;;;;;;;0.68;0.50;;;22.00;88.50;;;;;;5042101;28;20429;-83
2021/06/29 03:34:42;;;;;;;1.83;0.60;;;22.00;88.60;;;;;;5008119;28;20454;-84
2021/06/29 03:37:08;;;;;;;0.73;0.50;;;22.00;88.40;;;;;;5006331;28;20132;-84
2021/06/29 03:39:34;;;;;;;0.98;0.50;;;22.00;88.60;;;;;;5017512;28;20320;-84
2021/06/29 03:42:00;;;;;;;0.50;0.40;;;22.00;88.50;;;;;;5006684;28;20044;-84
2021/06/29 03:44:26;;;;;;;3.60;0.50;;;22.00;88.50;;;;;;5010401;28;20042;-83
2021/06/29 03:46:51;;;;;;;1.13;0.52;;;22.00;88.60;;;;;;5007853;28;20030;-82
2021/06/29 03:49:17;;;;;;;0.75;0.50;;;22.00;88.40;;;;;;5007328;28;20040;-82
2021/06/29 03:51:43;;;;;;;1.27;0.45;;;22.00;88.40;;;;;;5005869;28;20450;-83
2021/06/29 03:54:08;;;;;;;0.80;0.60;;;22.00;88.50;;;;;;5002404;28;20034;-82
2021/06/29 03:56:34;;;;;;;1.20;0.50;;;22.00;89.00;;;;;;5014175;28;20041;-83
2021/06/29 03:59:05;;;;;;;1.05;0.47;;;22.00;89.00;;;;;;5004494;28;20190;-83
2021/06/29 04:01:31;;;;;;;1.30;0.70;;;22.00;89.10;;;;;;5006526;28;20462;-82
2021/06/29 04:03:57;;;;;;;2.33;0.68;;;22.00;89.30;;;;;;5003746;28;20084;-83
2021/06/29 04:06:28;;;;;;;1.05;0.55;;;22.10;89.50;;;;;;5030003;28;20097;-83
2021/06/29 04:08:54;;;;;;;1.38;0.75;;;22.00;89.50;;;;;;5017023;28;20057;-84
2021/06/29 04:11:25;;;;;;;0.75;0.60;;;22.00;89.70;;;;;;5018777;28;20049;-82
2021/06/29 04:13:51;;;;;;;0.63;0.60;;;22.00;89.80;;;;;;5019493;28;20110;-82
2021/06/29 04:16:17;;;;;;;1.13;0.50;;;22.00;90.00;;;;;;5017338;28;20042;-82
2021/06/29 04:18:43;;;;;;;2.47;0.57;;;22.00;90.00;;;;;;5007390;28;20124;-83
2021/06/29 04:21:09;;;;;;;0.73;0.43;;;22.00;90.00;;;;;;5006664;28;20404;-82
2021/06/29 04:23:35;;;;;;;0.70;0.60;;;22.00;90.10;;;;;;5010716;28;20349;-83
2021/06/29 04:26:01;;;;;;;0.80;0.60;;;22.00;90.10;;;;;;5012899;28;20077;-83
2021/06/29 04:28:27;;;;;;;1.08;0.50;;;22.00;90.10;;;;;;5017426;28;20068;-83
2021/06/29 04:30:52;;;;;;;2.97;0.60;;;22.00;90.10;;;;;;5013396;28;20074;-85
2021/06/29 04:33:18;;;;;;;1.83;0.60;;;22.00;90.20;;;;;;5015064;28;20140;-84
2021/06/29 04:35:44;;;;;;;1.90;0.73;;;22.00;90.10;;;;;;5014567;28;20052;-84
2021/06/29 04:38:10;;;;;;;3.33;0.70;;;21.90;90.30;;;;;;5013613;28;20033;-84
2021/06/29 04:40:35;;;;;;;0.90;0.60;;;21.90;90.50;;;;;;5010995;28;20099;-84
2021/06/29 04:43:19;;;;;;;1.52;0.85;;;21.80;90.40;;;;;;5009606;28;20137;-83
2021/06/29 04:45:45;;;;;;;1.25;0.60;;;21.80;90.40;;;;;;5004836;28;20125;-83
2021/06/29 04:48:11;;;;;;;2.20;0.50;;;21.80;90.60;;;;;;5019735;28;20096;-85
2021/06/29 04:50:38;;;;;;;0.65;0.52;;;21.80;90.40;;;;;;5009120;28;20488;-82
2021/06/29 04:53:03;;;;;;;2.15;0.60;;;21.70;90.40;;;;;;5001692;28;20064;-83
2021/06/29 04:55:32;;;;;;;2.42;0.70;;;21.80;90.60;;;;;;5021894;28;20037;-82
2021/06/29 04:57:58;;;;;;;2.55;0.70;;;21.80;90.70;;;;;;5004912;28;20417;-82
2021/06/29 05:00:23;;;;;;;4.70;0.80;;;21.80;90.70;;;;;;5007469;28;20038;-84
2021/06/29 05:02:49;;;;;;;0.70;0.50;;;21.80;90.70;;;;;;5009329;28;20042;-83
2021/06/29 05:05:15;;;;;;;1.73;0.77;;;21.90;90.80;;;;;;5009898;28;20060;-84
2021/06/29 05:07:41;;;;;;;1.25;0.70;;;21.90;90.70;;;;;;5017990;28;20049;-84
2021/06/29 05:10:09;;;;;;;1.08;0.60;;;21.90;90.70;;;;;;5007260;28;20124;-85
2021/06/29 05:12:35;;;;;;;0.98;0.68;;;21.90;90.80;;;;;;5005209;28;20136;-84
2021/06/29 05:15:01;;;;;;;1.20;0.80;;;21.80;90.80;;;;;;5026386;28;20666;-84
2021/06/29 05:17:26;;;;;;;2.90;1.00;;;21.90;90.90;;;;;;5006562;28;20076;-82
2021/06/29 05:19:52;;;;;;;0.93;0.68;;;21.90;91.00;;;;;;5011094;28;20073;-85
2021/06/29 05:22:17;;;;;;;2.55;0.70;;;21.90;90.80;;;;;;5010287;28;20033;-84
2021/06/29 05:24:43;;;;;;;4.25;1.10;;;21.90;91.00;;;;;;5003670;28;20048;-82
2021/06/29 05:27:09;;;;;;;3.42;0.90;;;21.90;90.90;;;;;;5010598;28;20220;-84
2021/06/29 05:29:34;;;;;;;1.55;0.52;;;21.90;91.00;;;;;;5013132;28;20042;-82
2021/06/29 05:32:00;;;;;;;2.00;0.82;;;22.00;90.90;;;;;;5009111;28;20042;-83
2021/06/29 05:34:25;;;;;;;0.93;0.70;;;22.00;91.10;;;;;;5012568;28;20041;-83
2021/06/29 05:36:51;;;;;;;1.20;0.80;;;22.00;91.10;;;;;;5013741;28;20030;-83
2021/06/29 05:39:17;;;;;;;0.88;0.70;;;22.00;90.90;;;;;;5015376;28;20131;-82
2021/06/29 05:41:44;;;;;;;1.17;0.63;;;22.10;90.80;;;;;;5024891;28;20180;-82
2021/06/29 05:44:10;;;;;;;1.38;0.80;;;22.10;90.70;;;;;;5020036;28;20051;-83
2021/06/29 05:46:35;;;;;;;2.08;0.75;;;22.20;90.50;;;;;;5033634;28;20458;-83
2021/06/29 05:49:08;;;;;;;1.27;0.65;;;22.20;90.70;;;;;;5031407;28;20381;-84
2021/06/29 05:51:34;;;;;;;1.38;0.70;;;22.30;90.50;;;;;;5019232;28;20293;-84
2021/06/29 05:53:59;;;;;;;0.90;0.60;;;22.30;90.40;;;;;;5013350;28;20042;-82
2021/06/29 05:56:25;;;;;;;4.45;0.85;;;22.40;90.40;;;;;;5013566;28;20367;-83
2021/06/29 05:58:50;;;;;;;8.27;0.90;;;22.40;90.20;;;;;;5013189;28;20033;-83
2021/06/29 06:01:16;;;;;;;1.02;0.80;;;22.40;90.40;;;;;;5003798;28;20662;-83
2021/06/29 06:03:41;;;;;;;2.10;0.80;;;22.50;90.30;;;;;;5013447;28;20046;-83
2021/06/29 06:06:07;;;;;;;1.30;0.73;;;22.50;90.30;;;;;;5013585;28;20050;-82
2021/06/29 06:08:32;;;;;;;3.38;0.88;;;22.60;90.30;;;;;;4999342;28;20445;-84
2021/06/29 06:10:58;;;;;;;1.35;1.10;;;22.60;90.30;;;;;;5011058;28;20045;-84
2021/06/29 06:13:23;;;;;;;1.42;0.70;;;22.80;90.00;;;;;;4997227;28;20060;-83
2021/06/29 06:15:50;;;;;;;5.65;0.93;;;22.90;89.80;;;;;;5006433;28;20045;-83
2021/06/29 06:18:16;;;;;;;1.08;0.70;;;22.90;89.10;;;;;;5012749;28;20042;-83
2021/06/29 06:20:41;;;;;;;0.90;0.60;;;23.00;88.90;;;;;;5012439;28;20048;-84
2021/06/29 06:23:07;;;;;;;4.40;0.90;;;23.00;89.00;;;;;;5013444;28;20052;-83
2021/06/29 06:25:34;;;;;;;1.98;1.08;;;23.10;88.10;;;;;;5025759;28;20066;-83
2021/06/29 06:28:00;;;;;;;3.20;0.90;;;23.10;88.30;;;;;;5033701;28;20348;-83
2021/06/29 06:30:25;;;;;;;3.03;1.33;;;23.10;88.80;;;;;;5029661;28;20045;-84
2021/06/29 06:32:51;;;;;;;2.53;0.80;;;23.10;87.90;;;;;;5013927;28;20112;-84
2021/06/29 06:35:17;;;;;;;2.53;1.00;;;23.20;88.20;;;;;;5013871;28;20053;-84
2021/06/29 06:37:43;;;;;;;2.42;0.75;;;23.20;88.40;;;;;;5005604;28;20351;-83
2021/06/29 06:40:09;;;;;;;3.20;0.90;;;23.20;87.50;;;;;;5014174;28;20042;-83
2021/06/29 06:42:35;;;;;;;2.97;0.90;;;23.10;87.70;;;;;;5016225;28;20176;-82
2021/06/29 06:45:01;;;;;;;1.48;0.65;;;23.10;86.60;;;;;;5000048;28;20128;-82
2021/06/29 06:47:26;;;;;;;1.55;0.85;;;23.10;87.40;;;;;;4999745;28;20046;-84
2021/06/29 06:49:52;;;;;;;2.78;0.90;;;23.10;87.80;;;;;;5000120;28;20185;-83
2021/06/29 06:52:18;;;;;;;3.95;1.05;;;23.20;87.00;;;;;;4999732;28;20040;-84
2021/06/29 06:54:44;;;;;;;1.20;0.70;;;23.30;88.10;;;;;;4997981;28;20418;-83
2021/06/29 06:57:10;;;;;;;1.23;0.77;;;23.40;88.40;;;;;;5002451;28;20045;-83
2021/06/29 06:59:37;;;;;;;5.10;1.33;;;23.50;87.60;;;;;;5039612;28;20071;-84
2021/06/29 07:02:03;;;;;;;1.92;1.08;;;23.60;86.80;;;;;;5034844;28;20619;-83
2021/06/29 07:04:28;;;;;;;3.92;0.77;;;23.70;86.30;;;;;;5015704;28;20096;-83
2021/06/29 07:06:54;;;;;;;6.43;0.82;;;23.80;86.40;;;;;;5028464;28;20033;-83
2021/06/29 07:09:20;;;;;;;2.58;1.20;;;23.80;87.40;;;;;;5003393;28;20697;-83
2021/06/29 07:11:46;;;;;;;4.53;0.80;;;23.80;88.60;;;;;;4997934;28;20080;-83
2021/06/29 07:14:12;;;;;;;1.80;0.70;;;23.90;88.40;;;;;;4997846;28;20059;-85
2021/06/29 07:16:38;;;;;;;1.70;0.80;;;23.90;88.60;;;;;;5007162;28;20065;-83
2021/06/29 07:19:03;;;;;;;2.65;1.00;;;23.80;87.90;;;;;;5012189;28;20073;-85
2021/06/29 07:21:30;;;;;;;2.83;1.20;;;23.90;88.60;;;;;;5016446;28;20042;-83
2021/06/29 07:23:56;;;;;;;1.90;0.90;;;23.80;88.40;;;;;;5016033;28;20095;-83
2021/06/29 07:26:22;;;;;;;2.85;1.02;;;23.60;89.40;;;;;;5014377;28;20038;-83
2021/06/29 07:28:48;;;;;;;2.42;0.90;;;23.60;90.00;;;;;;5000264;28;20042;-83
2021/06/29 07:31:13;;;;;;;3.90;1.10;;;23.60;90.00;;;;;;5016446;28;20061;-83
2021/06/29 07:33:40;;;;;;;6.35;1.05;;;23.60;89.70;;;;;;5015777;28;20030;-82
2021/06/29 07:36:06;;;;;;;1.70;0.85;;;23.60;90.10;;;;;;5015182;28;20108;-82
2021/06/29 07:38:31;;;;;;;3.53;1.10;;;23.70;89.20;;;;;;5016235;28;20033;-83
2021/06/29 07:40:58;;;;;;;5.68;1.52;;;23.50;89.80;;;;;;5015475;28;20356;-81
2021/06/29 07:43:23;;;;;;;6.05;1.60;;;23.60;90.30;;;;;;5015615;28;20053;-83
2021/06/29 07:45:49;;;;;;;3.60;1.20;;;23.70;89.70;;;;;;5000675;28;20034;-82
2021/06/29 07:48:14;;;;;;;7.65;1.15;;;23.70;89.60;;;;;;4998140;28;20042;-84
2021/06/29 07:50:40;;;;;;;3.30;0.88;;;23.80;88.60;;;;;;5038568;28;20056;-86
2021/06/29 07:53:05;;;;;;;3.85;1.10;;;23.80;88.40;;;;;;5008107;28;20034;-85
2021/06/29 07:55:31;;;;;;;2.95;0.77;;;23.90;88.60;;;;;;5019455;28;20029;-84
2021/06/29 07:57:57;;;;;;;2.70;1.02;;;24.00;87.40;;;;;;4995915;28;20053;-86
2021/06/29 08:00:23;;;;;;;2.38;1.02;;;24.00;87.90;;;;;;5012656;28;20041;-85
2021/06/29 08:02:49;;;;;;;0.80;0.50;;;24.10;87.40;;;;;;5016005;28;20045;-84
2021/06/29 08:05:14;;;;;;;2.22;0.90;;;24.20;87.00;;;;;;5015497;28;20033;-83
2021/06/29 08:07:40;;;;;;;2.67;0.75;;;24.20;86.70;;;;;;5013091;28;20204;-84
2021/06/29 08:10:06;;;;;;;2.63;1.13;;;24.30;87.50;;;;;;5013125;28;20053;-84
2021/06/29 08:12:32;;;;;;;1.40;0.90;;;24.20;86.50;;;;;;5008918;28;20196;-84
2021/06/29 08:14:57;;;;;;;1.08;0.93;;;24.20;86.30;;;;;;5032792;28;20034;-85
2021/06/29 08:17:23;;;;;;;0.98;0.80;;;24.20;86.50;;;;;;5014717;28;20037;-84
2021/06/29 08:19:48;;;;;;;1.77;0.80;;;24.20;86.70;;;;;;4998368;28;20309;-85
2021/06/29 08:22:14;;;;;;;2.80;0.90;;;24.20;87.20;;;;;;5041524;28;20104;-84
2021/06/29 08:24:40;;;;;;;2.78;0.93;;;24.10;88.60;;;;;;5013575;28;20413;-85
2021/06/29 08:27:06;;;;;;;3.28;0.80;;;24.10;87.90;;;;;;5014846;28;20133;-85
2021/06/29 08:29:31;;;;;;;3.55;0.80;;;24.00;88.30;;;;;;5026287;28;20306;-84
2021/06/29 08:31:57;;;;;;;1.27;0.90;;;24.00;88.70;;;;;;5000280;28;20034;-85
2021/06/29 08:34:22;;;;;;;1.60;1.08;;;23.90;88.70;;;;;;5021735;28;20815;-84
2021/06/29 08:36:48;;;;;;;6.53;1.05;;;23.80;90.20;;;;;;5016829;28;20034;-84
2021/06/29 08:39:15;;;;;;;2.33;1.10;;;23.80;90.40;;;;;;5015098;28;20109;-85
2021/06/29 08:41:44;;;;;;;3.80;1.17;;;23.80;90.80;;;;;;5017729;28;20034;-85
2021/06/29 08:44:10;;;;;;;3.55;1.13;;;23.80;90.70;;;;;;5024237;28;20084;-84
2021/06/29 08:46:36;;;;;;;2.55;0.93;;;23.70;91.10;;;;;;5021645;28;20080;-85
2021/06/29 08:49:03;;;;;;;2.10;1.20;;;23.60;90.40;;;;;;5008775;28;20046;-85
2021/06/29 08:51:29;;;;;;;1.75;1.13;;;23.50;90.70;;;;;;5011724;28;20052;-84
2021/06/29 08:53:55;;;;;;;2.85;1.30;;;23.40;90.80;;;;;;4999666;28;20029;-85
2021/06/29 08:56:20;;;;;;;6.00;1.20;;;23.40;91.50;;;;;;5013151;28;20034;-84
2021/06/29 08:58:46;;;;;;;5.75;0.88;;;23.30;91.10;;;;;;5003948;28;20444;-86
2021/06/29 09:01:15;;;;;;;2.47;1.27;;;23.30;91.40;;;;;;5028968;28;20041;-86
2021/06/29 09:03:44;;;;;;;1.65;1.02;;;23.40;91.60;;;;;;5020093;28;20045;-85
2021/06/29 09:06:10;;;;;;;2.08;1.20;;;23.50;91.10;;;;;;5021376;28;20136;-85
2021/06/29 09:08:40;;;;;;;2.53;1.10;;;23.50;91.10;;;;;;5012504;28;20128;-85
2021/06/29 09:11:18;;;;;;;1.52;1.05;;;23.50;91.30;;;;;;5006252;28;20074;-84
2021/06/29 09:14:05;;;;;;;1.75;1.10;;;23.60;91.30;;;;;;5003065;28;20043;-85
2021/06/29 09:16:30;;;;;;;2.55;1.10;;;23.80;90.90;;;;;;5035531;28;20066;-85
2021/06/29 09:18:56;;;;;;;2.28;1.13;;;23.90;90.60;;;;;;5001771;28;20500;-85
2021/06/29 09:21:23;;;;;;;1.42;0.80;;;24.00;89.50;;;;;;5022141;28;20084;-85
2021/06/29 09:23:49;;;;;;;2.38;1.05;;;24.10;88.50;;;;;;5041198;28;20049;-86
2021/06/29 09:26:18;;;;;;;1.92;0.93;;;24.20;88.80;;;;;;5012314;28;20412;-86
2021/06/29 09:28:52;;;;;;;1.60;1.10;;;24.30;88.90;;;;;;5001641;28;20045;-86
2021/06/29 09:31:20;;;;;;;1.00;0.80;;;24.30;87.50;;;;;;5030547;28;20045;-85
2021/06/29 09:34:09;;;;;;;3.50;1.33;;;24.40;87.80;;;;;;5015131;28;20033;-84
2021/06/29 09:36:37;;;;;;;3.80;1.00;;;24.40;86.80;;;;;;5011035;28;20754;-86
2021/06/29 09:39:08;;;;;;;1.50;0.90;;;24.30;87.20;;;;;;5003068;28;20057;-85
2021/06/29 09:41:36;;;;;;;1.33;0.90;;;24.30;88.00;;;;;;5025122;28;20104;-85
2021/06/29 09:44:05;;;;;;;6.20;1.23;;;24.30;87.20;;;;;;5013319;28;20038;-85
2021/06/29 09:46:30;;;;;;;2.78;1.27;;;24.20;89.40;;;;;;5029686;28;20042;-84
2021/06/29 09:48:59;;;;;;;2.53;1.25;;;24.20;88.80;;;;;;5013045;28;20037;-85
2021/06/29 09:51:30;;;;;;;2.33;1.10;;;24.30;89.80;;;;;;5009963;28;20133;-85
2021/06/29 09:54:04;;;;;;;2.13;1.38;;;24.30;89.60;;;;;;5004631;28;20440;-84
2021/06/29 09:56:39;;;;;;;2.90;1.17;;;24.40;89.20;;;;;;5002282;28;20069;-85
2021/06/29 09:59:11;;;;;;;2.72;1.30;;;24.50;89.40;;;;;;5010963;28;20112;-86
2021/06/29 10:01:36;;;;;;;1.92;1.20;;;24.50;88.00;;;;;;5015392;28;20038;-86
2021/06/29 10:04:03;;;;;;;1.88;1.35;;;24.50;87.60;;;;;;5015690;28;20046;-85
2021/06/29 10:06:31;;;;;;;1.63;0.90;;;24.50;87.10;;;;;;5013137;28;20106;-85
2021/06/29 10:09:12;;;;;;;1.48;1.30;;;24.50;87.40;;;;;;5015982;28;20068;-85
2021/06/29 10:11:42;;;;;;;2.47;1.60;;;24.50;88.50;;;;;;5035264;28;20069;-86
2021/06/29 10:14:13;;;;;;;3.10;1.65;;;24.70;90.10;;;;;;5010543;28;20112;-85
2021/06/29 10:16:43;;;;;;;6.15;1.10;;;24.70;89.20;;;;;;5018092;28;20033;-85
2021/06/29 10:21:47;;;;;;;1.40;1.25;;;24.90;88.90;;;;;;5016554;28;20041;-84
2021/06/29 10:24:15;;;;;;;1.55;1.20;;;24.90;89.20;;;;;;5013346;28;20033;-84
2021/06/29 10:26:43;;;;;;;3.60;1.08;;;24.90;90.00;;;;;;5006651;28;20144;-82
2021/06/29 10:29:10;;;;;;;1.95;1.40;;;25.10;88.60;;;;;;5007737;28;20628;-79
2021/06/29 10:31:39;;;;;;;1.92;1.40;;;25.20;88.90;;;;;;5038731;28;20681;-82
2021/06/29 10:34:07;;;;;;;3.03;1.48;;;25.30;88.50;;;;;;4998371;28;20045;-81
2021/06/29 10:36:35;;;;;;;3.65;1.45;;;25.50;87.90;;;;;;5008486;28;20034;-92
2021/06/29 10:39:00;;;;;;;3.25;1.45;;;25.60;86.30;;;;;;5000906;28;20046;-91
2021/06/29 10:41:33;;;;;;;3.83;1.40;;;25.70;84.60;;;;;;4999796;28;20049;-90
2021/06/29 10:44:00;;;;;;;1.38;1.08;;;25.80;86.20;;;;;;5001743;28;20200;-90
2021/06/29 10:46:28;;;;;;;1.88;1.23;;;25.90;83.00;;;;;;5006645;28;20275;-89
2021/06/29 10:49:17;;;;;;;1.67;1.33;;;25.90;84.20;;;;;;5016040;28;20038;-89
2021/06/29 10:51:43;;;;;;;1.80;1.25;;;26.00;82.10;;;;;;5000548;28;20121;-92
2021/06/29 10:54:46;;;;;;;2.42;1.30;;;26.10;82.30;;;;;;5024498;28;20069;-92
2021/06/29 10:57:15;;;;;;;2.10;1.75;;;26.00;81.80;;;;;;5008803;28;20039;-87
2021/06/29 10:59:49;;;;;;;4.25;1.80;;;26.10;82.80;;;;;;4997960;28;20405;-85
2021/06/29 11:02:28;;;;;;;2.30;1.48;;;26.20;83.70;;;;;;5009318;28;20052;-84
2021/06/29 11:04:58;;;;;;;1.92;1.23;;;26.50;80.70;;;;;;5013107;28;20128;-85
2021/06/29 11:07:27;;;;;;;2.00;1.50;;;26.60;79.80;;;;;;5020362;28;20479;-85
2021/06/29 11:09:56;;;;;;;3.13;1.35;;;26.90;80.70;;;;;;4997543;28;20066;-85
2021/06/29 11:12:26;;;;;;;2.92;1.15;;;27.20;80.20;;;;;;5002650;28;20052;-85
2021/06/29 11:14:54;;;;;;;1.58;1.48;;;27.40;80.20;;;;;;5012563;28;20466;-86
2021/06/29 11:17:26;;;;;;;1.75;1.02;;;27.60;79.30;;;;;;5012912;28;20452;-86
2021/06/29 11:20:08;;;;;;;1.65;1.50;;;27.60;77.40;;;;;;5015526;28;20068;-85
2021/06/29 11:22:54;;;;;;;2.65;1.40;;;27.60;79.20;;;;;;5012876;28;20042;-86
2021/06/29 11:25:34;;;;;;;2.20;1.65;;;27.60;78.10;;;;;;5016901;28;20041;-86
2021/06/29 11:28:05;;;;;;;2.00;1.23;;;27.60;77.80;;;;;;5022003;28;20451;-86
2021/06/29 11:30:50;;;;;;;1.87;1.20;;;27.60;78.10;;;;;;5025381;28;20053;-85
2021/06/29 11:33:34;;;;;;;2.08;1.50;;;27.70;77.40;;;;;;5021654;28;20034;-87
2021/06/29 11:36:01;;;;;;;2.10;1.55;;;27.70;76.80;;;;;;5005666;28;20118;-85
2021/06/29 11:38:41;;;;;;;1.63;1.40;;;27.90;78.30;;;;;;5042240;28;20037;-85
2021/06/29 11:41:29;;;;;;;2.33;1.60;;;28.10;78.30;;;;;;5017167;28;20493;-85
2021/06/29 11:43:58;;;;;;;2.50;1.45;;;28.40;77.50;;;;;;5007363;28;20042;-86
2021/06/29 11:46:49;;;;;;;1.67;1.40;;;28.50;77.90;;;;;;5012412;28;20438;-85
2021/06/29 11:49:17;;;;;;;5.05;2.35;;;28.60;75.20;;;;;;5048476;28;20041;-86
2021/06/29 11:52:04;;;;;;;2.78;1.40;;;28.60;75.00;;;;;;5048721;28;20131;-86
2021/06/29 11:55:01;;;;;;;3.13;1.42;;;28.60;76.70;;;;;;5011742;28;20402;-87
2021/06/29 11:57:47;;;;;;;3.33;1.58;;;28.60;74.30;;;;;;5000376;28;20413;-87
2021/06/29 12:00:27;;;;;;;2.13;1.55;;;28.50;76.50;;;;;;5015953;28;20050;-86
2021/06/29 12:02:55;;;;;;;2.35;1.55;;;28.50;76.50;;;;;;5016083;28;20045;-86
2021/06/29 12:05:25;;;;;;;1.98;1.73;;;28.40;75.10;;;;;;5024294;28;20075;-85
2021/06/29 12:08:02;;;;;;;1.63;1.52;;;28.40;75.10;;;;;;5033710;28;20042;-87
2021/06/29 12:10:41;;;;;;;6.38;2.08;;;28.30;76.40;;;;;;5021286;28;20389;-85
2021/06/29 12:13:15;;;;;;;4.13;1.63;;;28.10;77.30;;;;;;5015180;28;20041;-85
2021/06/29 12:15:45;;;;;;;2.80;1.50;;;28.00;77.20;;;;;;5014484;28;20038;-86
2021/06/29 12:18:28;;;;;;;2.55;1.60;;;27.90;76.10;;;;;;5016495;28;20128;-86
2021/06/29 12:20:56;;;;;;;1.65;1.10;;;27.60;77.10;;;;;;5015980;28;20352;-84
2021/06/29 12:23:27;;;;;;;1.92;1.48;;;27.50;77.20;;;;;;5015998;28;20041;-89
2021/06/29 12:26:02;;;;;;;1.50;1.30;;;27.50;78.70;;;;;;5015531;28;20041;-90
2021/06/29 12:28:38;;;;;;;9.23;2.20;;;27.40;78.80;;;;;;5014794;28;20084;-87
2021/06/29 12:31:05;;;;;;;4.55;1.50;;;27.40;79.20;;;;;;5015234;28;20088;-87
2021/06/29 12:33:36;;;;;;;9.38;1.50;;;27.40;78.90;;;;;;5002493;28;20038;-88
2021/06/29 12:36:05;;;;;;;2.35;1.45;;;27.40;79.00;;;;;;5007223;28;20461;-84
2021/06/29 12:38:38;;;;;;;3.10;1.23;;;27.20;79.10;;;;;;5023150;28;20392;-84
2021/06/29 12:41:06;;;;;;;2.17;1.52;;;27.20;78.80;;;;;;5025112;28;20337;-89
2021/06/29 12:43:34;;;;;;;1.75;1.38;;;27.20;79.50;;;;;;5004744;28;20093;-88
2021/06/29 12:46:20;;;;;;;2.10;1.25;;;27.10;78.60;;;;;;4996565;28;20073;-87
2021/06/29 12:48:59;;;;;;;1.98;1.20;;;27.10;79.40;;;;;;4995551;28;20080;-82
2021/06/29 12:51:25;;;;;;;2.45;1.42;;;27.00;79.50;;;;;;4994946;28;20382;-82
2021/06/29 12:53:58;;;;;;;7.07;1.73;;;27.10;80.00;;;;;;4995146;28;20112;-81
2021/06/29 12:56:36;;;;;;;7.40;1.85;;;27.10;79.80;;;;;;5000464;28;20078;-86
2021/06/29 12:59:02;;;;;;;5.80;1.50;;;27.00;79.70;;;;;;5002342;28;20037;-85
2021/06/29 13:01:27;;;;;;;2.83;1.85;;;26.80;79.30;;;;;;5013619;28;20409;-86